createdAt,value
2017-01-08T00:00:12.259Z,0.58
2017-01-08T00:01:12.247Z,0.65
2017-01-08T00:02:12.243Z,0.58
2017-01-08T00:03:12.213Z,0.7
2017-01-08T00:04:12.200Z,0.7
2017-01-08T00:05:12.181Z,0.6
2017-01-08T00:06:12.167Z,0.6
2017-01-08T00:07:12.152Z,0.61
2017-01-08T00:08:12.161Z,0.65
2017-01-08T00:09:12.121Z,0.62
2017-01-08T00:10:12.103Z,0.51
2017-01-08T00:11:12.088Z,0.57
2017-01-08T00:12:12.074Z,0.66
2017-01-08T00:13:12.058Z,0.55
2017-01-08T00:14:12.041Z,0.6
2017-01-08T00:15:12.027Z,0.58
2017-01-08T00:16:12.008Z,0.57
2017-01-08T00:17:11.997Z,0.69
2017-01-08T00:18:11.982Z,0.62
2017-01-08T00:19:11.966Z,0.6
2017-01-08T00:20:11.946Z,0.73
2017-01-08T00:21:11.931Z,0.62
2017-01-08T00:22:11.918Z,0.66
2017-01-08T00:23:11.900Z,0.7
2017-01-08T00:24:11.886Z,0.68
2017-01-08T00:25:11.870Z,0.65
2017-01-08T00:26:11.854Z,0.68
2017-01-08T00:27:11.839Z,0.61
2017-01-08T00:28:11.824Z,0.68
2017-01-08T00:29:11.806Z,0.65
2017-01-08T00:30:11.791Z,0.69
2017-01-08T00:31:11.775Z,0.6
2017-01-08T00:32:11.762Z,0.66
2017-01-08T00:33:11.749Z,0.68
2017-01-08T00:34:11.729Z,0.73
2017-01-08T00:35:11.717Z,0.65
2017-01-08T00:36:11.700Z,0.72
2017-01-08T00:37:11.687Z,0.62
2017-01-08T00:38:11.670Z,0.78
2017-01-08T00:39:11.656Z,0.68
2017-01-08T00:40:11.637Z,0.75
2017-01-08T00:41:11.623Z,0.78
2017-01-08T00:42:11.605Z,0.7
2017-01-08T00:43:11.592Z,0.78
2017-01-08T00:44:11.577Z,0.72
2017-01-08T00:45:11.558Z,0.76
2017-01-08T00:46:11.545Z,0.75
2017-01-08T00:47:11.528Z,0.76
2017-01-08T00:48:11.900Z,0.76
2017-01-08T00:49:11.497Z,0.8
2017-01-08T00:50:11.487Z,0.72
2017-01-08T00:51:11.466Z,0.78
2017-01-08T00:52:11.454Z,0.78
2017-01-08T00:53:11.435Z,0.76
2017-01-08T00:54:11.435Z,0.78
2017-01-08T00:55:11.406Z,0.84
2017-01-08T00:56:11.388Z,0.79
2017-01-08T00:57:11.374Z,0.8
2017-01-08T00:58:11.359Z,0.8
2017-01-08T00:59:11.346Z,0.83
2017-01-08T01:00:11.326Z,0.75
2017-01-08T01:01:11.314Z,0.88
2017-01-08T01:02:11.297Z,0.83
2017-01-08T01:03:11.282Z,0.88
2017-01-08T01:04:11.264Z,0.84
2017-01-08T01:05:11.251Z,0.86
2017-01-08T01:06:11.236Z,0.86
2017-01-08T01:07:11.218Z,0.84
2017-01-08T01:08:11.213Z,0.87
2017-01-08T01:09:11.190Z,0.93
2017-01-08T01:10:11.173Z,0.86
2017-01-08T01:11:11.160Z,0.83
2017-01-08T01:12:11.143Z,0.79
2017-01-08T01:13:11.136Z,0.86
2017-01-08T01:14:11.113Z,0.78
2017-01-08T01:15:11.099Z,0.79
2017-01-08T01:16:11.468Z,0.83
2017-01-08T01:17:11.068Z,0.87
2017-01-08T01:18:11.054Z,0.9
2017-01-08T01:19:11.036Z,0.79
2017-01-08T01:20:11.021Z,0.9
2017-01-08T01:21:11.005Z,0.87
2017-01-08T01:22:10.994Z,0.86
2017-01-08T01:23:10.977Z,0.79
2017-01-08T01:24:11.347Z,0.84
2017-01-08T01:25:10.947Z,0.83
2017-01-08T01:26:10.928Z,0.8
2017-01-08T01:27:10.911Z,0.84
2017-01-08T01:28:10.899Z,0.76
2017-01-08T01:29:10.882Z,0.79
2017-01-08T01:30:10.873Z,0.8
2017-01-08T01:31:10.851Z,0.9
2017-01-08T01:32:10.836Z,0.79
2017-01-08T01:33:10.819Z,0.87
2017-01-08T01:34:10.808Z,0.76
2017-01-08T01:35:10.789Z,0.8
2017-01-08T01:36:10.774Z,0.79
2017-01-08T01:37:10.761Z,0.8
2017-01-08T01:38:10.747Z,0.78
2017-01-08T01:39:10.730Z,0.84
2017-01-08T01:40:10.713Z,0.78
2017-01-08T01:41:10.697Z,0.86
2017-01-08T01:42:10.682Z,0.73
2017-01-08T01:43:10.669Z,0.88
2017-01-08T01:44:10.653Z,0.76
2017-01-08T01:45:10.669Z,0.9
2017-01-08T01:46:10.623Z,0.79
2017-01-08T01:47:10.609Z,0.86
2017-01-08T01:48:10.591Z,0.88
2017-01-08T01:49:10.575Z,0.93
2017-01-08T01:50:10.567Z,0.88
2017-01-08T01:51:10.543Z,0.9
2017-01-08T01:52:10.921Z,0.78
2017-01-08T01:53:10.514Z,0.88
2017-01-08T01:54:10.499Z,0.83
2017-01-08T01:55:10.481Z,0.93
2017-01-08T01:56:10.469Z,0.79
2017-01-08T01:57:10.454Z,0.73
2017-01-08T01:58:10.435Z,0.79
2017-01-08T01:59:10.420Z,0.86
2017-01-08T02:00:10.406Z,0.86
2017-01-08T02:01:10.777Z,0.87
2017-01-08T02:02:10.375Z,0.86
2017-01-08T02:03:10.395Z,0.88
2017-01-08T02:04:10.344Z,0.78
2017-01-08T02:05:10.360Z,0.75
2017-01-08T02:06:10.311Z,0.76
2017-01-08T02:07:10.308Z,0.83
2017-01-08T02:08:10.284Z,0.88
2017-01-08T02:09:10.266Z,0.8
2017-01-08T02:10:10.254Z,0.75
2017-01-08T02:11:10.236Z,0.76
2017-01-08T02:12:10.220Z,0.78
2017-01-08T02:13:10.209Z,0.8
2017-01-08T02:14:10.189Z,0.79
2017-01-08T02:15:10.176Z,0.83
2017-01-08T02:16:10.166Z,0.78
2017-01-08T02:17:10.144Z,0.84
2017-01-08T02:18:10.133Z,0.84
2017-01-08T02:19:10.115Z,0.83
2017-01-08T02:20:10.099Z,0.8
2017-01-08T02:21:10.082Z,0.73
2017-01-08T02:22:10.480Z,0.91
2017-01-08T02:23:10.052Z,0.86
2017-01-08T02:24:10.039Z,0.86
2017-01-08T02:25:10.021Z,0.84
2017-01-08T02:26:10.393Z,0.86
2017-01-08T02:27:09.997Z,0.78
2017-01-08T02:28:09.974Z,0.87
2017-01-08T02:29:09.960Z,0.86
2017-01-08T02:30:09.944Z,0.87
2017-01-08T02:31:09.929Z,0.88
2017-01-08T02:32:09.914Z,0.86
2017-01-08T02:33:09.899Z,0.7
2017-01-08T02:34:10.269Z,0.78
2017-01-08T02:35:09.868Z,0.79
2017-01-08T02:36:09.850Z,0.79
2017-01-08T02:37:09.836Z,0.93
2017-01-08T02:38:09.820Z,0.84
2017-01-08T02:39:09.806Z,0.87
2017-01-08T02:40:09.795Z,0.87
2017-01-08T02:41:09.781Z,0.87
2017-01-08T02:42:09.764Z,0.79
2017-01-08T02:43:09.743Z,0.83
2017-01-08T02:44:09.727Z,0.84
2017-01-08T02:45:09.713Z,0.97
2017-01-08T02:46:09.702Z,0.83
2017-01-08T02:47:09.683Z,0.78
2017-01-08T02:48:09.664Z,0.75
2017-01-08T02:49:09.660Z,0.88
2017-01-08T02:50:09.635Z,0.8
2017-01-08T02:51:09.620Z,0.83
2017-01-08T02:52:09.606Z,0.8
2017-01-08T02:53:09.591Z,0.84
2017-01-08T02:54:09.577Z,0.86
2017-01-08T02:55:09.944Z,0.84
2017-01-08T02:56:09.545Z,0.83
2017-01-08T02:57:09.529Z,0.84
2017-01-08T02:58:09.515Z,0.9
2017-01-08T02:59:09.498Z,0.87
2017-01-08T03:00:09.488Z,0.87
2017-01-08T03:01:09.465Z,0.88
2017-01-08T03:02:09.452Z,0.88
2017-01-08T03:03:09.435Z,0.84
2017-01-08T03:04:09.418Z,0.83
2017-01-08T03:05:09.404Z,0.78
2017-01-08T03:06:09.398Z,0.79
2017-01-08T03:07:09.381Z,0.78
2017-01-08T03:08:09.359Z,0.76
2017-01-08T03:09:09.353Z,0.8
2017-01-08T03:10:09.326Z,0.76
2017-01-08T03:11:09.316Z,0.73
2017-01-08T03:12:09.295Z,0.69
2017-01-08T03:13:09.671Z,0.75
2017-01-08T03:14:09.270Z,0.7
2017-01-08T03:15:09.249Z,0.78
2017-01-08T03:16:09.237Z,0.75
2017-01-08T03:17:09.221Z,0.75
2017-01-08T03:18:09.207Z,0.76
2017-01-08T03:19:09.184Z,0.76
2017-01-08T03:20:09.170Z,0.79
2017-01-08T03:21:09.154Z,0.78
2017-01-08T03:22:09.140Z,0.78
2017-01-08T03:23:09.124Z,0.78
2017-01-08T03:24:09.107Z,0.78
2017-01-08T03:25:09.094Z,0.72
2017-01-08T03:26:09.081Z,0.76
2017-01-08T03:27:09.063Z,0.72
2017-01-08T03:28:09.043Z,0.65
2017-01-08T03:29:09.032Z,0.7
2017-01-08T03:30:09.012Z,0.72
2017-01-08T03:31:09.386Z,0.75
2017-01-08T03:32:08.982Z,0.7
2017-01-08T03:33:08.967Z,0.68
2017-01-08T03:34:08.951Z,0.75
2017-01-08T03:35:08.934Z,0.78
2017-01-08T03:36:08.926Z,0.78
2017-01-08T03:37:08.904Z,0.68
2017-01-08T03:38:08.891Z,0.7
2017-01-08T03:39:08.874Z,0.65
2017-01-08T03:40:08.863Z,0.72
2017-01-08T03:41:08.839Z,0.66
2017-01-08T03:42:08.829Z,0.72
2017-01-08T03:43:08.813Z,0.65
2017-01-08T03:44:08.801Z,0.72
2017-01-08T03:45:08.780Z,0.83
2017-01-08T03:46:09.151Z,0.62
2017-01-08T03:47:08.749Z,0.69
2017-01-08T03:48:08.731Z,0.69
2017-01-08T03:49:08.722Z,0.68
2017-01-08T03:50:08.702Z,0.68
2017-01-08T03:51:08.685Z,0.72
2017-01-08T03:52:08.671Z,0.72
2017-01-08T03:53:08.667Z,0.65
2017-01-08T03:54:08.645Z,0.69
2017-01-08T03:55:08.627Z,0.58
2017-01-08T03:56:08.607Z,0.6
2017-01-08T03:57:08.596Z,0.73
2017-01-08T03:58:08.578Z,0.57
2017-01-08T03:59:08.562Z,0.69
2017-01-08T04:00:08.545Z,0.65
2017-01-08T04:01:08.532Z,0.57
2017-01-08T04:02:08.515Z,0.65
2017-01-08T04:03:08.502Z,0.7
2017-01-08T04:04:08.485Z,0.6
2017-01-08T04:05:08.467Z,0.7
2017-01-08T04:06:08.453Z,0.55
2017-01-08T04:07:08.436Z,0.62
2017-01-08T04:08:08.422Z,0.7
2017-01-08T04:09:08.405Z,0.65
2017-01-08T04:10:08.409Z,0.58
2017-01-08T04:11:08.373Z,0.53
2017-01-08T04:12:08.361Z,0.65
2017-01-08T04:13:08.343Z,0.55
2017-01-08T04:14:08.329Z,0.66
2017-01-08T04:15:08.313Z,0.58
2017-01-08T04:16:08.295Z,0.7
2017-01-08T04:17:08.281Z,0.57
2017-01-08T04:18:08.264Z,0.6
2017-01-08T04:19:08.255Z,0.6
2017-01-08T04:20:08.236Z,0.73
2017-01-08T04:21:08.218Z,0.72
2017-01-08T04:22:08.236Z,0.58
2017-01-08T04:23:08.188Z,0.73
2017-01-08T04:24:08.175Z,0.75
2017-01-08T04:25:08.157Z,0.69
2017-01-08T04:26:08.142Z,0.62
2017-01-08T04:27:08.128Z,0.78
2017-01-08T04:28:08.112Z,0.76
2017-01-08T04:29:08.096Z,0.66
2017-01-08T04:30:08.081Z,0.72
2017-01-08T04:31:08.075Z,0.75
2017-01-08T04:32:08.050Z,0.83
2017-01-08T04:33:08.034Z,0.78
2017-01-08T04:34:08.019Z,0.84
2017-01-08T04:35:08.005Z,0.76
2017-01-08T04:36:07.990Z,0.75
2017-01-08T04:37:07.972Z,0.87
2017-01-08T04:38:07.969Z,0.83
2017-01-08T04:39:07.942Z,0.86
2017-01-08T04:40:07.932Z,0.86
2017-01-08T04:41:07.910Z,0.83
2017-01-08T04:42:07.899Z,0.9
2017-01-08T04:43:07.884Z,0.84
2017-01-08T04:44:07.867Z,0.87
2017-01-08T04:45:08.239Z,0.83
2017-01-08T04:46:07.834Z,0.88
2017-01-08T04:47:07.819Z,0.83
2017-01-08T04:48:07.813Z,0.86
2017-01-08T04:49:07.787Z,0.93
2017-01-08T04:50:07.775Z,0.86
2017-01-08T04:51:07.757Z,0.84
2017-01-08T04:52:07.745Z,0.84
2017-01-08T04:53:07.728Z,0.8
2017-01-08T04:54:07.713Z,0.86
2017-01-08T04:55:07.696Z,0.86
2017-01-08T04:56:07.684Z,0.79
2017-01-08T04:57:07.664Z,0.8
2017-01-08T04:58:07.651Z,0.78
2017-01-08T04:59:07.634Z,0.72
2017-01-08T05:00:07.621Z,0.75
2017-01-08T05:01:07.604Z,0.72
2017-01-08T05:02:07.589Z,0.78
2017-01-08T05:03:07.574Z,0.65
2017-01-08T05:04:07.562Z,0.78
2017-01-08T05:05:07.544Z,0.78
2017-01-08T05:06:07.534Z,0.79
2017-01-08T05:07:07.511Z,0.73
2017-01-08T05:08:07.499Z,0.72
2017-01-08T05:09:07.482Z,0.75
2017-01-08T05:10:07.470Z,0.75
2017-01-08T05:11:07.451Z,0.78
2017-01-08T05:12:07.438Z,0.73
2017-01-08T05:13:07.419Z,0.83
2017-01-08T05:14:07.408Z,0.79
2017-01-08T05:15:07.392Z,0.79
2017-01-08T05:16:07.374Z,0.68
2017-01-08T05:17:07.360Z,0.73
2017-01-08T05:18:07.731Z,0.68
2017-01-08T05:19:07.348Z,0.75
2017-01-08T05:20:07.315Z,0.61
2017-01-08T05:21:07.301Z,0.62
2017-01-08T05:22:07.288Z,0.57
2017-01-08T05:23:07.266Z,0.68
2017-01-08T05:24:07.254Z,0.65
2017-01-08T05:25:07.239Z,0.62
2017-01-08T05:26:07.223Z,0.57
2017-01-08T05:27:07.205Z,0.44
2017-01-08T05:28:07.191Z,0.44
2017-01-08T05:29:07.177Z,0.44
2017-01-08T05:30:07.156Z,0.49
2017-01-08T05:31:07.145Z,0.5
2017-01-08T05:32:07.127Z,0.47
2017-01-08T05:33:07.115Z,0.44
2017-01-08T05:34:07.100Z,0.47
2017-01-08T05:35:07.080Z,0.46
2017-01-08T05:36:07.064Z,0.5
2017-01-08T05:37:07.051Z,0.5
2017-01-08T05:38:07.034Z,0.47
2017-01-08T05:39:07.021Z,0.5
2017-01-08T05:40:07.009Z,0.42
2017-01-08T05:41:06.987Z,0.33
2017-01-08T05:42:06.974Z,0.36
2017-01-08T05:43:06.987Z,0.24
2017-01-08T05:44:06.940Z,0.18
2017-01-08T05:45:06.924Z,0.26
2017-01-08T05:46:06.911Z,0.23
2017-01-08T05:47:06.901Z,0.24
2017-01-08T05:48:06.879Z,0.21
2017-01-08T05:49:06.863Z,0.28
2017-01-08T05:50:06.846Z,0.28
2017-01-08T05:51:06.834Z,0.32
2017-01-08T05:52:06.817Z,0.33
2017-01-08T05:53:06.799Z,0.31
2017-01-08T05:54:06.798Z,0.46
2017-01-08T05:55:06.773Z,0.46
2017-01-08T05:56:06.751Z,0.51
2017-01-08T05:57:06.737Z,0.49
2017-01-08T05:58:06.722Z,0.57
2017-01-08T05:59:06.706Z,0.55
2017-01-08T06:00:06.690Z,0.61
2017-01-08T06:01:06.677Z,0.57
2017-01-08T06:02:06.660Z,0.73
2017-01-08T06:03:06.647Z,0.66
2017-01-08T06:04:06.630Z,0.7
2017-01-08T06:05:06.612Z,0.72
2017-01-08T06:06:06.600Z,0.61
2017-01-08T06:07:06.581Z,0.65
2017-01-08T06:08:06.569Z,0.57
2017-01-08T06:09:06.558Z,0.62
2017-01-08T06:10:06.537Z,0.62
2017-01-08T06:11:06.521Z,0.62
2017-01-08T06:12:06.505Z,0.68
2017-01-08T06:13:06.490Z,0.68
2017-01-08T06:14:06.474Z,0.69
2017-01-08T06:15:06.461Z,0.61
2017-01-08T06:16:06.444Z,0.61
2017-01-08T06:17:06.431Z,0.61
2017-01-08T06:18:06.412Z,0.6
2017-01-08T06:19:06.398Z,0.49
2017-01-08T06:20:06.386Z,0.49
2017-01-08T06:21:06.366Z,0.44
2017-01-08T06:22:06.355Z,0.42
2017-01-08T06:23:06.336Z,0.42
2017-01-08T06:24:06.320Z,0.38
2017-01-08T06:25:06.303Z,0.41
2017-01-08T06:26:06.289Z,0.32
2017-01-08T06:27:06.273Z,0.29
2017-01-08T06:28:06.260Z,0.33
2017-01-08T06:29:06.245Z,0.32
2017-01-08T06:30:06.227Z,0.33
2017-01-08T06:31:06.214Z,0.32
2017-01-08T06:32:06.193Z,0.32
2017-01-08T06:33:06.180Z,0.38
2017-01-08T06:34:06.163Z,0.42
2017-01-08T06:35:06.147Z,0.38
2017-01-08T06:36:06.135Z,0.41
2017-01-08T06:37:06.115Z,0.42
2017-01-08T06:38:06.127Z,0.47
2017-01-08T06:39:06.086Z,0.46
2017-01-08T06:40:06.070Z,0.44
2017-01-08T06:41:06.053Z,0.49
2017-01-08T06:42:06.039Z,0.46
2017-01-08T06:43:06.027Z,0.44
2017-01-08T06:44:06.005Z,0.44
2017-01-08T06:45:05.994Z,0.5
2017-01-08T06:46:05.975Z,0.47
2017-01-08T06:47:05.964Z,0.49
2017-01-08T06:48:05.944Z,0.51
2017-01-08T06:49:05.929Z,0.62
2017-01-08T06:50:06.307Z,0.55
2017-01-08T06:51:05.898Z,0.65
2017-01-08T06:52:05.888Z,0.61
2017-01-08T06:53:05.864Z,0.65
2017-01-08T06:54:05.849Z,0.62
2017-01-08T06:55:06.220Z,0.58
2017-01-08T06:56:05.817Z,0.58
2017-01-08T06:57:05.804Z,0.39
2017-01-08T06:58:05.787Z,0.47
2017-01-08T06:59:05.771Z,0.47
2017-01-08T07:00:06.141Z,0.36
2017-01-08T07:01:05.745Z,0.32
2017-01-08T07:02:05.725Z,0.38
2017-01-08T07:03:05.708Z,0.26
2017-01-08T07:04:05.692Z,0.33
2017-01-08T07:05:05.679Z,0.39
2017-01-08T07:06:05.661Z,0.46
2017-01-08T07:07:05.647Z,0.44
2017-01-08T07:08:05.630Z,0.5
2017-01-08T07:09:05.615Z,0.49
2017-01-08T07:10:05.988Z,0.47
2017-01-08T07:11:05.583Z,0.46
2017-01-08T07:12:05.568Z,0.41
2017-01-08T07:13:05.550Z,0.41
2017-01-08T07:14:05.536Z,0.38
2017-01-08T07:15:05.517Z,0.36
2017-01-08T07:16:05.504Z,0.47
2017-01-08T07:17:05.486Z,0.41
2017-01-08T07:18:05.472Z,0.41
2017-01-08T07:19:05.455Z,0.38
2017-01-08T07:20:05.443Z,0.38
2017-01-08T07:21:05.425Z,0.36
2017-01-08T07:22:05.409Z,0.31
2017-01-08T07:23:05.393Z,0.26
2017-01-08T07:24:05.375Z,0.32
2017-01-08T07:25:05.361Z,0.29
2017-01-08T07:26:05.345Z,0.32
2017-01-08T07:27:05.326Z,0.31
2017-01-08T07:28:05.313Z,0.32
2017-01-08T07:29:05.294Z,0.31
2017-01-08T07:30:05.281Z,0.28
2017-01-08T07:31:05.264Z,0.28
2017-01-08T07:32:05.247Z,0.26
2017-01-08T07:33:05.231Z,0.18
2017-01-08T07:34:05.217Z,0.2
2017-01-08T07:35:05.205Z,0.11
2017-01-08T07:36:05.185Z,0.23
2017-01-08T07:37:05.170Z,0.14
2017-01-08T07:38:05.152Z,0.11
2017-01-08T07:39:05.137Z,0.21
2017-01-08T07:40:05.120Z,0.2
2017-01-08T07:41:05.107Z,0.2
2017-01-08T07:42:05.089Z,0.13
2017-01-08T07:43:05.074Z,0.17
2017-01-08T07:44:05.056Z,0.2
2017-01-08T07:45:05.043Z,0.21
2017-01-08T07:46:05.025Z,0.2
2017-01-08T07:47:05.010Z,0.24
2017-01-08T07:48:04.997Z,0.13
2017-01-08T07:49:04.984Z,0.24
2017-01-08T07:50:04.962Z,0.23
2017-01-08T07:51:04.945Z,0.26
2017-01-08T07:52:04.936Z,0.26
2017-01-08T07:53:04.916Z,0.26
2017-01-08T07:54:04.896Z,0.23
2017-01-08T07:55:05.272Z,0.28
2017-01-08T07:56:04.866Z,0.24
2017-01-08T07:57:04.850Z,0.32
2017-01-08T07:58:04.836Z,0.33
2017-01-08T07:59:04.819Z,0.35
2017-01-08T08:00:05.192Z,0.41
2017-01-08T08:01:04.784Z,0.47
2017-01-08T08:02:05.161Z,0.38
2017-01-08T08:03:04.760Z,0.46
2017-01-08T08:04:04.739Z,0.44
2017-01-08T08:05:04.726Z,0.33
2017-01-08T08:06:04.706Z,0.33
2017-01-08T08:07:04.690Z,0.24
2017-01-08T08:08:04.675Z,0.24
2017-01-08T08:09:04.660Z,0.18
2017-01-08T08:10:04.643Z,0.14
2017-01-08T08:11:04.627Z,0.18
2017-01-08T08:12:04.611Z,0.14
2017-01-08T08:13:04.594Z,0.07
2017-01-08T08:14:04.579Z,0.03
2017-01-08T08:15:04.562Z,0.15
2017-01-08T08:16:04.551Z,0.18
2017-01-08T08:17:04.532Z,0.23
2017-01-08T08:18:04.515Z,0.21
2017-01-08T08:19:04.887Z,0.28
2017-01-08T08:20:04.483Z,0.23
2017-01-08T08:21:04.469Z,0.18
2017-01-08T08:22:04.449Z,0.21
2017-01-08T08:23:04.434Z,0.26
2017-01-08T08:24:04.809Z,0.15
2017-01-08T08:25:04.405Z,0.24
2017-01-08T08:26:04.390Z,0.24
2017-01-08T08:27:04.372Z,0.28
2017-01-08T08:28:04.355Z,0.32
2017-01-08T08:29:04.339Z,0.28
2017-01-08T08:30:04.323Z,0.31
2017-01-08T08:31:04.694Z,0.32
2017-01-08T08:32:04.317Z,0.32
2017-01-08T08:33:04.279Z,0.39
2017-01-08T08:34:04.265Z,0.47
2017-01-08T08:35:04.645Z,0.42
2017-01-08T08:36:04.228Z,0.5
2017-01-08T08:37:04.211Z,0.44
2017-01-08T08:38:04.197Z,0.5
2017-01-08T08:39:04.181Z,0.42
2017-01-08T08:40:04.164Z,0.47
2017-01-08T08:41:04.154Z,0.53
2017-01-08T08:42:04.138Z,0.57
2017-01-08T08:43:04.118Z,0.58
2017-01-08T08:44:04.106Z,0.65
2017-01-08T08:45:04.089Z,0.65
2017-01-08T08:46:04.073Z,0.73
2017-01-08T08:47:04.061Z,0.75
2017-01-08T08:48:04.041Z,0.78
2017-01-08T08:49:04.027Z,0.78
2017-01-08T08:50:04.009Z,0.84
2017-01-08T08:51:03.995Z,0.88
2017-01-08T08:52:03.980Z,0.76
2017-01-08T08:53:03.963Z,0.88
2017-01-08T08:54:03.951Z,0.88
2017-01-08T08:55:03.931Z,0.87
2017-01-08T08:56:03.918Z,0.97
2017-01-08T08:57:03.900Z,1.04
2017-01-08T08:58:03.886Z,1.08
2017-01-08T08:59:03.870Z,1.02
2017-01-08T09:00:03.856Z,1.12
2017-01-08T09:01:03.844Z,1.2
2017-01-08T09:02:03.828Z,1.24
2017-01-08T09:03:03.829Z,1.24
2017-01-08T09:04:03.795Z,1.27
2017-01-08T09:05:03.783Z,1.32
2017-01-08T09:06:03.766Z,1.27
2017-01-08T09:07:03.749Z,1.29
2017-01-08T09:08:03.735Z,1.23
2017-01-08T09:09:03.722Z,1.26
2017-01-08T09:10:04.092Z,1.32
2017-01-08T09:11:03.692Z,1.29
2017-01-08T09:12:03.694Z,1.32
2017-01-08T09:13:03.665Z,1.33
2017-01-08T09:14:03.648Z,1.24
2017-01-08T09:15:03.635Z,1.34
2017-01-08T09:16:03.617Z,1.36
2017-01-08T09:17:03.991Z,1.37
2017-01-08T09:18:03.587Z,1.41
2017-01-08T09:19:03.573Z,1.41
2017-01-08T09:20:03.557Z,1.37
2017-01-08T09:21:03.545Z,1.42
2017-01-08T09:22:03.532Z,1.45
2017-01-08T09:23:03.515Z,1.47
2017-01-08T09:24:03.498Z,1.45
2017-01-08T09:25:03.487Z,1.37
2017-01-08T09:26:03.475Z,1.41
2017-01-08T09:27:03.454Z,1.45
2017-01-08T09:28:03.444Z,1.42
2017-01-08T09:29:03.428Z,1.42
2017-01-08T09:30:03.417Z,1.34
2017-01-08T09:31:03.395Z,1.37
2017-01-08T09:32:03.408Z,1.37
2017-01-08T09:33:03.368Z,1.36
2017-01-08T09:34:03.355Z,1.37
2017-01-08T09:35:03.340Z,1.41
2017-01-08T09:36:03.324Z,1.36
2017-01-08T09:37:03.314Z,1.36
2017-01-08T09:38:03.296Z,1.4
2017-01-08T09:39:03.671Z,1.41
2017-01-08T09:40:03.267Z,1.44
2017-01-08T09:41:03.641Z,1.36
2017-01-08T09:42:03.238Z,1.42
2017-01-08T09:43:03.229Z,1.41
2017-01-08T09:44:03.213Z,1.42
2017-01-08T09:45:03.195Z,1.45
2017-01-08T09:46:03.182Z,1.37
2017-01-08T09:47:03.168Z,1.41
2017-01-08T09:48:03.153Z,1.34
2017-01-08T09:49:03.136Z,1.42
2017-01-08T09:50:03.123Z,1.4
2017-01-08T09:51:03.493Z,1.37
2017-01-08T09:52:03.097Z,1.36
2017-01-08T09:53:03.082Z,1.3
2017-01-08T09:54:03.065Z,1.3
2017-01-08T09:55:03.051Z,1.33
2017-01-08T09:56:03.039Z,1.37
2017-01-08T09:57:03.406Z,1.37
2017-01-08T09:58:03.007Z,1.42
2017-01-08T09:59:02.991Z,1.37
2017-01-08T10:00:02.980Z,1.45
2017-01-08T10:01:02.961Z,1.52
2017-01-08T10:02:02.950Z,1.55
2017-01-08T10:03:02.935Z,1.59
2017-01-08T10:04:02.916Z,1.62
2017-01-08T10:05:02.907Z,1.58
2017-01-08T10:06:02.892Z,1.58
2017-01-08T10:07:02.875Z,1.55
2017-01-08T10:08:02.862Z,1.6
2017-01-08T10:09:02.848Z,1.63
2017-01-08T10:10:02.833Z,1.59
2017-01-08T10:11:02.822Z,1.52
2017-01-08T10:12:02.800Z,1.5
2017-01-08T10:13:02.791Z,1.42
2017-01-08T10:14:02.773Z,1.47
2017-01-08T10:15:02.761Z,1.54
2017-01-08T10:16:02.745Z,1.52
2017-01-08T10:17:02.729Z,1.52
2017-01-08T10:18:02.717Z,1.42
2017-01-08T10:19:02.699Z,1.59
2017-01-08T10:20:02.719Z,1.58
2017-01-08T10:21:02.671Z,1.6
2017-01-08T10:22:02.657Z,1.6
2017-01-08T10:23:02.643Z,1.66
2017-01-08T10:24:02.629Z,1.58
2017-01-08T10:25:02.616Z,1.66
2017-01-08T10:26:02.602Z,1.63
2017-01-08T10:27:02.589Z,1.59
2017-01-08T10:28:02.573Z,1.48
2017-01-08T10:29:02.557Z,1.5
2017-01-08T10:30:02.931Z,1.5
2017-01-08T10:31:02.529Z,1.51
2017-01-08T10:32:02.514Z,1.48
2017-01-08T10:33:02.501Z,1.58
2017-01-08T10:34:02.488Z,1.54
2017-01-08T10:35:02.474Z,1.54
2017-01-08T10:36:02.461Z,1.63
2017-01-08T10:37:02.445Z,1.6
2017-01-08T10:38:02.430Z,1.6
2017-01-08T10:39:02.413Z,1.63
2017-01-08T10:40:02.405Z,1.59
2017-01-08T10:41:02.386Z,1.68
2017-01-08T10:42:02.378Z,1.7
2017-01-08T10:43:02.361Z,1.8
2017-01-08T10:44:02.345Z,1.77
2017-01-08T10:45:02.330Z,1.79
2017-01-08T10:46:02.705Z,1.77
2017-01-08T10:47:02.305Z,1.72
2017-01-08T10:48:02.287Z,1.81
2017-01-08T10:49:02.273Z,1.69
2017-01-08T10:50:02.259Z,1.79
2017-01-08T10:51:02.248Z,1.7
2017-01-08T10:52:02.232Z,1.69
2017-01-08T10:53:02.218Z,1.68
2017-01-08T10:54:02.205Z,1.77
2017-01-08T10:55:02.188Z,1.7
2017-01-08T10:56:02.177Z,1.77
2017-01-08T10:57:02.164Z,1.65
2017-01-08T10:58:02.146Z,1.81
2017-01-08T10:59:02.131Z,1.7
2017-01-08T11:00:02.505Z,1.58
2017-01-08T11:01:02.103Z,1.44
2017-01-08T11:02:02.090Z,1.45
2017-01-08T11:03:02.075Z,1.55
2017-01-08T11:04:02.063Z,1.6
2017-01-08T11:05:02.049Z,1.51
2017-01-08T11:06:02.038Z,1.63
2017-01-08T11:07:02.017Z,1.7
2017-01-08T11:08:02.010Z,1.66
2017-01-08T11:09:01.991Z,1.69
2017-01-08T11:10:02.372Z,1.65
2017-01-08T11:11:01.961Z,1.76
2017-01-08T11:12:01.950Z,1.65
2017-01-08T11:13:01.942Z,1.65
2017-01-08T11:14:01.940Z,1.63
2017-01-08T11:15:01.905Z,1.6
2017-01-08T11:16:01.893Z,1.76
2017-01-08T11:17:01.877Z,1.76
2017-01-08T11:18:01.862Z,1.72
2017-01-08T11:19:01.848Z,1.77
2017-01-08T11:20:01.835Z,1.77
2017-01-08T11:21:01.821Z,1.72
2017-01-08T11:22:01.806Z,1.76
2017-01-08T11:23:01.792Z,1.77
2017-01-08T11:24:01.779Z,1.68
2017-01-08T11:25:01.772Z,1.79
2017-01-08T11:26:01.750Z,1.77
2017-01-08T11:27:01.737Z,1.79
2017-01-08T11:28:01.720Z,1.7
2017-01-08T11:29:01.706Z,1.69
2017-01-08T11:30:01.693Z,1.73
2017-01-08T11:31:01.680Z,1.79
2017-01-08T11:32:01.664Z,1.76
2017-01-08T11:33:01.650Z,1.84
2017-01-08T11:34:01.640Z,1.8
2017-01-08T11:35:01.625Z,1.79
2017-01-08T11:36:01.606Z,1.86
2017-01-08T11:37:01.595Z,1.8
2017-01-08T11:38:01.580Z,1.77
2017-01-08T11:39:01.565Z,1.8
2017-01-08T11:40:01.553Z,1.88
2017-01-08T11:41:01.536Z,1.91
2017-01-08T11:42:01.523Z,1.99
2017-01-08T11:43:01.513Z,2.02
2017-01-08T11:44:01.494Z,1.99
2017-01-08T11:45:01.480Z,1.95
2017-01-08T11:46:01.468Z,2.07
2017-01-08T11:47:01.454Z,2.06
2017-01-08T11:48:01.440Z,2.07
2017-01-08T11:49:01.423Z,2.07
2017-01-08T11:50:01.414Z,2.05
2017-01-08T11:51:01.400Z,1.88
2017-01-08T11:52:01.382Z,1.99
2017-01-08T11:53:01.368Z,1.9
2017-01-08T11:54:01.354Z,1.93
2017-01-08T11:55:01.754Z,1.99
2017-01-08T11:56:01.327Z,2
2017-01-08T11:57:01.314Z,2.03
2017-01-08T11:58:01.298Z,1.98
2017-01-08T11:59:01.291Z,2.07
2017-01-08T12:00:01.270Z,2.07
2017-01-08T12:01:01.256Z,2.05
2017-01-08T12:02:01.240Z,2.03
2017-01-08T12:03:01.232Z,2.07
2017-01-08T12:04:01.215Z,2.05
2017-01-08T12:05:01.199Z,2.09
2017-01-08T12:06:01.188Z,1.88
2017-01-08T12:07:01.205Z,1.93
2017-01-08T12:08:01.160Z,1.81
2017-01-08T12:09:01.148Z,1.8
2017-01-08T12:10:01.133Z,1.81
2017-01-08T12:11:01.116Z,1.79
2017-01-08T12:12:01.491Z,1.83
2017-01-08T12:13:01.114Z,1.86
2017-01-08T12:14:01.073Z,1.87
2017-01-08T12:15:01.074Z,1.88
2017-01-08T12:16:01.440Z,1.9
2017-01-08T12:17:01.033Z,1.9
2017-01-08T12:18:01.017Z,1.88
2017-01-08T12:19:01.016Z,1.88
2017-01-08T12:20:00.992Z,1.91
2017-01-08T12:21:00.980Z,1.91
2017-01-08T12:22:00.967Z,2.05
2017-01-08T12:23:00.950Z,2
2017-01-08T12:24:00.937Z,2.06
2017-01-08T12:25:00.922Z,2.03
2017-01-08T12:26:00.909Z,2.05
2017-01-08T12:27:00.892Z,2.02
2017-01-08T12:28:00.879Z,1.99
2017-01-08T12:29:00.864Z,2
2017-01-08T12:30:00.853Z,1.8
2017-01-08T12:31:00.839Z,1.76
2017-01-08T12:32:00.823Z,1.81
2017-01-08T12:33:00.815Z,1.77
2017-01-08T12:34:00.794Z,1.79
2017-01-08T12:35:00.781Z,1.7
2017-01-08T12:36:00.768Z,1.7
2017-01-08T12:37:00.754Z,1.62
2017-01-08T12:38:01.126Z,1.68
2017-01-08T12:39:00.726Z,1.66
2017-01-08T12:40:00.711Z,1.69
2017-01-08T12:41:00.694Z,1.8
2017-01-08T12:42:00.683Z,1.77
2017-01-08T12:43:01.057Z,1.7
2017-01-08T12:44:00.654Z,1.77
2017-01-08T12:45:00.639Z,1.79
2017-01-08T12:46:00.627Z,1.73
2017-01-08T12:47:00.614Z,1.8
2017-01-08T12:48:00.597Z,1.77
2017-01-08T12:49:00.583Z,1.79
2017-01-08T12:50:00.573Z,1.84
2017-01-08T12:51:00.586Z,1.9
2017-01-08T12:52:00.541Z,1.88
2017-01-08T12:53:00.528Z,1.91
2017-01-08T12:54:00.518Z,1.98
2017-01-08T12:55:00.503Z,1.84
2017-01-08T12:56:00.482Z,1.88
2017-01-08T12:57:00.470Z,1.91
2017-01-08T12:58:00.457Z,1.91
2017-01-08T12:59:00.446Z,1.91
2017-01-08T13:00:00.431Z,1.98
2017-01-08T13:01:00.413Z,1.86
2017-01-08T13:02:00.405Z,1.8
2017-01-08T13:03:00.387Z,1.77
2017-01-08T13:04:00.372Z,1.83
2017-01-08T13:05:00.360Z,1.73
2017-01-08T13:06:00.345Z,1.69
2017-01-08T13:07:00.334Z,1.5
2017-01-08T13:08:00.318Z,1.54
2017-01-08T13:09:00.306Z,1.47
2017-01-08T13:10:00.294Z,1.42
2017-01-08T13:11:00.272Z,1.4
2017-01-08T13:12:00.258Z,1.37
2017-01-08T13:13:00.248Z,1.32
2017-01-08T13:14:00.230Z,1.23
2017-01-08T13:15:00.214Z,1.2
2017-01-08T13:16:00.200Z,1.29
2017-01-08T13:17:00.190Z,1.34
2017-01-08T13:18:00.177Z,1.34
2017-01-08T13:19:00.159Z,1.41
2017-01-08T13:20:00.144Z,1.4
2017-01-08T13:21:00.127Z,1.42
2017-01-08T13:22:00.504Z,1.36